Time;durP1;ratioP1;P1;durP2;ratioP2;P2;SDS_P1;SDS_P2;PMS_P1;PMS_P2;Temp;Humidity;BMP_temperature;BMP_pressure;BME280_temperature;BME280_humidity;BME280_pressure;Samples;Min_cycle;Max_cycle;Signal;HPM_P1;HPM_P2
2022/06/18 00:02:20;;;;;;;5.33;1.30;;;;;;;-143.84;50.51;45018.59;4929529;29;20443;-78
2022/06/18 00:04:48;;;;;;;4.30;1.67;;;;;;;-143.84;49.42;45035.75;4929606;29;20486;-78
2022/06/18 00:07:18;;;;;;;4.20;1.37;;;;;;;-143.84;49.88;44995.75;4929326;29;20451;-78
2022/06/18 00:09:57;;;;;;;3.63;1.37;;;;;;;-143.84;51.62;45024.31;4929578;29;20443;-78
2022/06/18 00:15:15;;;;;;;1.73;1.30;;;;;;;-143.84;51.28;44988.13;4929729;29;20893;-78
2022/06/18 00:17:42;;;;;;;3.50;1.33;;;;;;;-143.84;50.95;44982.41;4929996;29;20517;-78
2022/06/18 00:20:12;;;;;;;4.30;1.40;;;;;;;-143.84;51.39;45022.41;4929561;29;20447;-78
2022/06/18 00:22:41;;;;;;;1.60;1.40;;;;;;;-143.84;52.12;45014.78;4929911;28;20802;-78
2022/06/18 00:25:18;;;;;;;2.10;1.40;;;;;;;-143.84;52.87;45012.88;4929666;29;20539;-78
2022/06/18 00:27:45;;;;;;;3.30;1.50;;;;;;;-143.84;53.78;45010.97;4929435;29;20508;-78
2022/06/18 00:30:15;;;;;;;1.53;1.23;;;;;;;-143.84;53.83;45014.78;4929529;28;21003;-78
2022/06/18 00:32:43;;;;;;;4.37;1.73;;;;;;;-143.84;52.75;45007.19;4928879;29;20443;-78
2022/06/18 00:35:10;;;;;;;6.13;1.93;;;;;;;-143.84;54.36;45010.97;4929908;29;20447;-78
2022/06/18 00:37:38;;;;;;;7.23;1.33;;;;;;;-143.84;54.49;45018.59;4929921;28;20444;-78
2022/06/18 00:40:16;;;;;;;1.37;1.27;;;;;;;-143.84;51.70;45001.47;4929904;29;20490;-78
2022/06/18 00:42:44;;;;;;;2.43;1.60;;;;;;;-143.84;50.65;45009.09;4929697;28;20442;-78
2022/06/18 00:45:16;;;;;;;4.47;1.60;;;;;;;-143.84;47.98;44990.03;4929426;28;20486;-78
2022/06/18 00:47:56;;;;;;;2.40;1.80;;;;;;;-143.84;46.77;45016.69;4929689;29;20466;-78
2022/06/18 00:50:29;;;;;;;1.97;1.50;;;;;;;-143.84;46.00;45020.50;4929170;28;20456;-78
2022/06/18 00:53:01;;;;;;;1.10;1.00;;;;;;;-143.84;47.29;45016.69;4929048;28;20487;-78
2022/06/18 00:55:34;;;;;;;2.03;1.43;;;;;;;-143.84;50.96;45003.38;4929275;29;20454;-78
2022/06/18 00:58:07;;;;;;;1.90;1.77;;;;;;;-143.84;52.91;45003.38;4929111;28;20538;-78
2022/06/18 01:00:39;;;;;;;3.00;1.73;;;;;;;-143.84;53.35;45009.09;4929356;28;20443;-78
2022/06/18 01:03:07;;;;;;;3.27;1.50;;;;;;;-143.84;52.61;44995.75;4929560;28;20447;-78
2022/06/18 01:05:38;;;;;;;4.13;1.30;;;;;;;-143.84;50.82;45022.41;4929362;28;20949;-78
2022/06/18 01:08:12;;;;;;;12.60;2.10;;;;;;;-143.84;51.27;45064.31;4929238;29;20530;-78
2022/06/18 01:10:43;;;;;;;1.90;1.50;;;;;;;-143.84;51.03;45026.22;4929617;29;20442;-78
2022/06/18 01:13:13;;;;;;;2.87;1.60;;;;;;;-143.84;50.26;44982.41;4929413;28;20433;-78
2022/06/18 01:15:43;;;;;;;1.80;1.60;;;;;;;-143.84;51.37;45037.66;4929079;28;20450;-78
2022/06/18 01:18:12;;;;;;;2.30;1.90;;;;;;;-143.84;50.99;45012.88;4929000;29;20455;-78
2022/06/18 01:20:43;;;;;;;4.37;1.40;;;;;;;-143.84;48.68;45009.09;4929077;29;20455;-77
2022/06/18 01:23:16;;;;;;;4.47;1.40;;;;;;;-143.84;47.47;44995.75;4928908;29;20976;-78
2022/06/18 01:25:44;;;;;;;6.83;1.97;;;;;;;-143.84;45.43;45037.66;4928791;29;20451;-78
2022/06/18 01:28:16;;;;;;;2.80;1.50;;;;;;;-143.84;43.76;45018.59;4944887;28;20841;-78
2022/06/18 01:30:45;;;;;;;1.50;1.40;;;;;;;-143.84;43.36;45035.75;4948014;29;20450;-78
2022/06/18 01:33:14;;;;;;;1.60;1.50;;;;;;;-143.84;44.66;45001.47;4948200;28;20493;-78
2022/06/18 01:35:45;;;;;;;1.60;1.50;;;;;;;-143.84;44.24;44984.31;4948134;28;20827;-78
2022/06/18 01:38:13;;;;;;;2.90;1.50;;;;;;;-143.84;44.77;45003.38;4948017;28;20450;-78
2022/06/18 01:40:52;;;;;;;2.27;1.70;;;;;;;-143.84;46.78;44982.41;4947869;29;20453;-78
2022/06/18 01:43:22;;;;;;;5.37;1.50;;;;;;;-143.84;46.89;45022.41;4947942;28;20508;-78
2022/06/18 01:45:55;;;;;;;2.73;1.47;;;;;;;-143.84;47.85;45033.84;4950662;28;20449;-78
2022/06/18 01:48:27;;;;;;;1.47;1.37;;;;;;;-143.84;44.36;45030.03;4950926;28;20446;-78
2022/06/18 01:50:59;;;;;;;1.60;1.50;;;;;;;-143.84;44.80;45018.59;4950930;28;20450;-78
2022/06/18 01:53:31;;;;;;;1.40;1.30;;;;;;;-143.84;46.00;45014.78;4950959;29;20509;-78
2022/06/18 01:56:04;;;;;;;1.47;1.20;;;;;;;-143.84;46.31;45035.75;4950958;28;20529;-78
2022/06/18 01:58:37;;;;;;;1.93;1.67;;;;;;;-143.84;46.94;45012.88;4951229;28;20475;-79
2022/06/18 02:01:09;;;;;;;1.60;1.37;;;;;;;-143.84;49.13;45022.41;4951407;28;20442;-78
2022/06/18 02:03:36;;;;;;;9.10;1.60;;;;;;;-143.84;51.84;45024.31;4950966;28;20445;-77
2022/06/18 02:06:05;;;;;;;2.27;1.60;;;;;;;-143.84;52.61;45026.22;4950403;29;20525;-78
2022/06/18 02:08:32;;;;;;;2.13;1.53;;;;;;;-143.84;54.54;45009.09;4950075;29;20458;-78
2022/06/18 02:11:05;;;;;;;1.87;1.77;;;;;;;-143.84;55.23;45073.81;4950204;28;20944;-78
2022/06/18 02:13:37;;;;;;;2.30;2.03;;;;;;;-143.84;56.03;45030.03;4950374;29;20488;-78
2022/06/18 02:16:09;;;;;;;8.33;1.97;;;;;;;-143.84;56.89;45033.84;4949742;29;20450;-78
2022/06/18 02:18:39;;;;;;;4.23;1.40;;;;;;;-143.84;56.64;45033.84;4950170;28;20446;-78
2022/06/18 02:21:10;;;;;;;2.40;1.73;;;;;;;-143.84;57.34;45018.59;4950426;28;20445;-78
2022/06/18 02:23:38;;;;;;;4.47;2.30;;;;;;;-143.84;58.02;44993.84;4950566;28;20469;-78
2022/06/18 02:26:07;;;;;;;8.17;1.87;;;;;;;-143.84;58.65;45020.50;4950564;28;20449;-78
2022/06/18 02:28:38;;;;;;;3.53;2.17;;;;;;;-143.84;59.57;45035.75;4950948;28;20443;-78
2022/06/18 02:31:06;;;;;;;1.93;1.83;;;;;;;-143.84;59.42;45005.28;4950900;28;21018;-78
2022/06/18 02:33:39;;;;;;;4.60;1.80;;;;;;;-143.84;59.41;45033.84;4950768;28;20458;-78
2022/06/18 02:36:13;;;;;;;3.10;1.80;;;;;;;-143.84;59.21;44993.84;4950058;28;20453;-78
2022/06/18 02:38:40;;;;;;;3.80;1.97;;;;;;;-143.84;59.50;45005.28;4949401;29;20441;-78
2022/06/18 02:41:10;;;;;;;2.23;2.03;;;;;;;-143.84;59.55;45007.19;4949239;29;20461;-78
2022/06/18 02:43:38;;;;;;;3.23;2.10;;;;;;;-143.84;59.96;45035.75;4950528;28;20439;-78
2022/06/18 02:46:05;;;;;;;5.93;1.90;;;;;;;-143.84;60.06;45026.22;4949784;28;20494;-78
2022/06/18 02:48:35;;;;;;;2.17;1.97;;;;;;;-143.84;59.35;45104.28;4949506;28;20510;-78
2022/06/18 02:51:04;;;;;;;3.10;1.80;;;;;;;-143.84;59.71;45028.13;4949419;28;20964;-78
2022/06/18 02:53:32;;;;;;;2.20;2.10;;;;;;;-143.84;59.51;45033.84;4949214;29;21007;-78
2022/06/18 02:56:02;;;;;;;2.33;1.90;;;;;;;-143.84;60.22;45018.59;4949145;28;20454;-78
2022/06/18 02:58:32;;;;;;;4.40;1.83;;;;;;;-143.84;60.69;45026.22;4949857;29;20446;-78
2022/06/18 03:01:02;;;;;;;3.03;2.10;;;;;;;-143.84;60.27;45033.84;4950136;28;20752;-78
2022/06/18 03:03:33;;;;;;;3.00;1.97;;;;;;;-143.84;61.07;45049.06;4950187;28;20507;-77
2022/06/18 03:06:01;;;;;;;2.93;2.00;;;;;;;-143.84;61.56;45035.75;4950213;28;20490;-78
2022/06/18 03:08:30;;;;;;;2.90;2.07;;;;;;;-143.84;61.58;45010.97;4950377;29;20446;-78
2022/06/18 03:13:45;;;;;;;5.60;3.40;;;;;;;-143.84;60.91;45039.53;4950217;28;20453;-78
2022/06/18 03:16:16;;;;;;;6.03;2.87;;;;;;;-143.84;61.95;45010.97;4949781;29;20454;-78
2022/06/18 03:18:45;;;;;;;3.40;3.07;;;;;;;-143.84;62.46;44999.56;4949470;28;20438;-77
2022/06/18 03:21:19;;;;;;;4.40;3.03;;;;;;;-143.84;64.68;45007.19;4949624;28;20445;-77
2022/06/18 03:23:46;;;;;;;3.53;3.23;;;;;;;-143.84;66.11;45033.84;4949431;28;20766;-78
2022/06/18 03:26:16;;;;;;;4.00;3.53;;;;;;;-143.84;67.40;45033.84;4949672;28;20539;-78
2022/06/18 03:28:45;;;;;;;5.63;3.60;;;;;;;-143.84;68.42;45020.50;4950020;29;20500;-78
2022/06/18 03:31:13;;;;;;;4.67;3.90;;;;;;;-143.84;69.42;45014.78;4949658;28;20515;-78
2022/06/18 03:33:42;;;;;;;6.43;4.40;;;;;;;-143.84;70.34;45039.53;4950116;28;20450;-78
2022/06/18 03:36:12;;;;;;;5.20;4.57;;;;;;;-143.84;71.04;45024.31;4949898;28;20464;-78
2022/06/18 03:38:39;;;;;;;4.37;4.07;;;;;;;-143.84;71.80;45024.31;4949759;29;20454;-78
2022/06/18 03:41:08;;;;;;;7.70;4.93;;;;;;;-143.84;72.46;45003.38;4949453;28;20520;-77
2022/06/18 03:43:35;;;;;;;12.33;5.33;;;;;;;-143.84;72.83;45039.53;4948768;28;20451;-78
2022/06/18 03:46:07;;;;;;;10.23;4.90;;;;;;;-143.84;73.09;45024.31;4948673;28;20494;-77
2022/06/18 03:48:42;;;;;;;15.07;5.53;;;;;;;-143.84;73.67;45050.97;4948968;29;20431;-77
2022/06/18 03:51:09;;;;;;;7.30;5.43;;;;;;;-143.84;73.71;45024.31;4948718;28;20457;-77
2022/06/18 03:53:37;;;;;;;6.93;5.50;;;;;;;-143.84;73.93;45022.41;4948268;28;20571;-77
2022/06/18 03:56:05;;;;;;;7.10;5.60;;;;;;;-143.84;73.76;45064.31;4949374;29;20455;-77
2022/06/18 03:58:32;;;;;;;6.00;5.43;;;;;;;-143.84;73.10;45031.94;4949405;28;21253;-78
2022/06/18 04:00:59;;;;;;;5.80;4.67;;;;;;;-143.84;71.52;45014.78;4950148;28;20434;-79
2022/06/18 04:03:28;;;;;;;4.30;4.00;;;;;;;-143.84;70.03;45020.50;4950360;29;20439;-78
2022/06/18 04:05:55;;;;;;;5.27;4.70;;;;;;;-143.84;67.92;45018.59;4950620;29;20474;-78
2022/06/18 04:08:22;;;;;;;4.60;4.20;;;;;;;-143.84;66.19;45003.38;4948850;28;20458;-78
2022/06/18 04:10:49;;;;;;;8.97;4.53;;;;;;;-143.84;64.03;45003.38;4949776;28;20856;-76
2022/06/18 04:13:18;;;;;;;9.33;4.63;;;;;;;-143.84;62.09;45018.59;4949397;28;20446;-78
2022/06/18 04:15:47;;;;;;;9.83;4.60;;;;;;;-143.84;60.74;45001.47;4949729;28;20528;-78
2022/06/18 04:18:16;;;;;;;5.90;4.60;;;;;;;-143.84;59.58;44991.94;4950315;28;20458;-78
2022/06/18 04:20:44;;;;;;;6.63;4.60;;;;;;;-143.84;57.03;45003.38;4949426;28;21029;-78
2022/06/18 04:23:15;;;;;;;7.60;3.93;;;;;;;-143.84;56.46;44980.53;4949638;28;20516;-79
2022/06/18 04:25:43;;;;;;;7.03;4.37;;;;;;;-143.84;55.16;44984.31;4950005;29;20486;-79
2022/06/18 04:28:10;;;;;;;5.03;3.83;;;;;;;-143.84;54.77;44953.88;4950725;28;20508;-79
2022/06/18 04:30:37;;;;;;;4.50;4.10;;;;;;;-143.84;55.01;44963.38;4950246;28;20445;-79
2022/06/18 04:33:05;;;;;;;8.30;4.10;;;;;;;-143.84;53.94;44984.31;4950162;28;20441;-78
2022/06/18 04:35:32;;;;;;;7.10;3.90;;;;;;;-143.84;51.73;44976.72;4949973;28;20454;-79
2022/06/18 04:38:02;;;;;;;9.17;4.30;;;;;;;-143.84;51.53;45001.47;4949901;29;20947;-79
2022/06/18 04:40:33;;;;;;;8.13;4.67;;;;;;;-143.84;51.03;44971.00;4949969;28;20450;-78
2022/06/18 04:43:00;;;;;;;4.50;4.10;;;;;;;-143.84;49.71;44955.75;4949976;29;20447;-79
2022/06/18 04:45:28;;;;;;;4.27;3.90;;;;;;;-143.84;49.48;44959.56;4949993;28;20546;-78
2022/06/18 04:47:56;;;;;;;4.80;3.67;;;;;;;-143.84;50.01;44974.81;4950088;29;20458;-78
2022/06/18 04:50:26;;;;;;;6.70;4.30;;;;;;;-143.84;50.67;45016.69;4949473;29;20446;-78
2022/06/18 04:52:53;;;;;;;9.13;4.20;;;;;;;-143.84;50.71;44982.41;4948891;28;20489;-78
2022/06/18 04:55:22;;;;;;;4.57;3.80;;;;;;;-143.84;50.62;44993.84;4949257;28;20434;-78
2022/06/18 04:57:49;;;;;;;8.43;4.67;;;;;;;-143.84;50.45;44951.97;4949279;28;20442;-78
2022/06/18 05:00:17;;;;;;;9.23;3.60;;;;;;;-143.84;50.70;44953.88;4948941;28;20450;-78
2022/06/18 05:02:45;;;;;;;5.07;4.00;;;;;;;-143.84;49.76;44950.06;4949246;28;20435;-78
2022/06/18 05:05:15;;;;;;;4.57;3.60;;;;;;;-143.84;49.59;44955.75;4949312;29;20490;-78
2022/06/18 05:07:42;;;;;;;4.20;3.03;;;;;;;-143.84;47.29;44957.66;4949296;28;20454;-78
2022/06/18 05:10:10;;;;;;;5.77;3.53;;;;;;;-143.84;47.48;44967.19;4949166;29;20457;-78
2022/06/18 05:12:39;;;;;;;4.57;3.47;;;;;;;-143.84;46.29;44940.53;4948649;28;20458;-78
2022/06/18 05:15:09;;;;;;;5.87;3.93;;;;;;;-143.84;45.49;44948.16;4948130;29;20520;-78
2022/06/18 05:17:38;;;;;;;4.37;3.97;;;;;;;-143.84;44.96;44948.16;4948651;28;20438;-78
2022/06/18 05:20:07;;;;;;;7.20;3.73;;;;;;;-143.84;44.92;44948.16;4951728;28;20445;-78
2022/06/18 05:22:34;;;;;;;11.63;3.50;;;;;;;-143.84;43.65;44961.47;4951220;28;20474;-78
2022/06/18 05:25:01;;;;;;;7.20;3.67;;;;;;;-143.84;44.57;44950.06;4950754;28;20486;-78
2022/06/18 05:27:31;;;;;;;3.73;3.47;;;;;;;-143.84;44.56;44913.88;4951479;28;20446;-78
2022/06/18 05:30:00;;;;;;;4.90;3.43;;;;;;;-143.84;44.60;44953.88;4951384;28;20446;-78
2022/06/18 05:32:28;;;;;;;3.37;3.07;;;;;;;-143.84;44.90;44959.56;4951306;28;20438;-78
2022/06/18 05:34:55;;;;;;;3.50;3.20;;;;;;;-143.84;45.61;44944.34;4951121;28;20450;-78
2022/06/18 05:37:25;;;;;;;4.97;3.50;;;;;;;-143.84;45.61;44948.16;4951032;29;20442;-78
2022/06/18 05:39:52;;;;;;;6.50;3.63;;;;;;;-143.84;46.69;44961.47;4950869;28;20510;-78
2022/06/18 05:42:20;;;;;;;4.20;3.30;;;;;;;-143.84;46.89;44948.16;4951400;29;20465;-78
2022/06/18 05:44:48;;;;;;;9.60;4.20;;;;;;;-143.84;48.46;44965.28;4951744;28;20948;-78
2022/06/18 05:47:22;;;;;;;7.10;3.40;;;;;;;-143.84;48.48;44957.66;4951687;28;20836;-78
2022/06/18 05:49:50;;;;;;;5.40;3.57;;;;;;;-143.84;49.06;44959.56;4951979;28;20458;-78
2022/06/18 05:52:18;;;;;;;3.67;3.40;;;;;;;-143.84;49.30;44980.53;4951216;28;20912;-73
2022/06/18 05:54:45;;;;;;;11.40;3.80;;;;;;;-143.84;49.37;44971.00;4950929;28;20446;-73
2022/06/18 05:57:12;;;;;;;3.33;3.00;;;;;;;-143.84;49.56;44984.31;4951205;28;20446;-73
2022/06/18 05:59:39;;;;;;;3.70;3.40;;;;;;;-143.84;50.44;44957.66;4950767;28;20446;-73
2022/06/18 06:02:07;;;;;;;4.10;3.17;;;;;;;-143.84;51.00;44974.81;4950504;28;20944;-73
2022/06/18 06:04:36;;;;;;;6.80;3.43;;;;;;;-143.84;51.29;44961.47;4950555;28;20446;-73
2022/06/18 06:07:04;;;;;;;5.13;3.60;;;;;;;-143.84;51.69;44971.00;4950381;29;20577;-73
2022/06/18 06:12:16;;;;;;;6.47;3.97;;;;;;;-143.84;53.22;44993.84;4950571;28;20572;-73
2022/06/18 06:14:43;;;;;;;4.63;4.17;;;;;;;-143.84;54.14;44951.97;4950522;29;20434;-73
2022/06/18 06:17:14;;;;;;;5.30;3.40;;;;;;;-143.84;54.22;44953.88;4950598;29;20482;-73
2022/06/18 06:19:43;;;;;;;3.17;2.93;;;;;;;-143.84;55.29;44984.31;4950253;28;20811;-73
2022/06/18 06:22:10;;;;;;;3.70;3.47;;;;;;;-143.84;54.92;44988.13;4950251;29;20446;-73
2022/06/18 06:24:37;;;;;;;7.03;4.80;;;;;;;-143.84;55.34;44972.91;4950209;29;20442;-73
2022/06/18 06:27:05;;;;;;;5.30;3.80;;;;;;;-143.84;55.77;44982.41;4950321;28;21022;-73
2022/06/18 06:29:33;;;;;;;13.00;3.80;;;;;;;-143.84;56.05;44991.94;4949899;28;20449;-73
2022/06/18 06:32:00;;;;;;;14.17;3.57;;;;;;;-143.84;55.82;44993.84;4950172;28;20814;-73
2022/06/18 06:34:28;;;;;;;6.70;4.27;;;;;;;-143.84;57.29;44988.13;4950370;28;20492;-73
2022/06/18 06:36:58;;;;;;;6.13;3.93;;;;;;;-143.84;56.68;44976.72;4949735;28;20450;-73
2022/06/18 06:39:25;;;;;;;4.17;3.87;;;;;;;-143.84;55.52;44984.31;4949881;28;20486;-73
2022/06/18 06:41:53;;;;;;;4.57;3.50;;;;;;;-143.84;56.22;44988.13;4949992;28;20975;-73
2022/06/18 06:44:20;;;;;;;6.63;3.90;;;;;;;-143.84;56.45;44993.84;4949544;29;20460;-73
2022/06/18 06:46:47;;;;;;;5.17;3.47;;;;;;;-143.84;56.91;44990.03;4949526;29;20585;-73
2022/06/18 06:49:14;;;;;;;6.80;3.90;;;;;;;-143.84;57.72;44980.53;4949967;29;20924;-73
2022/06/18 06:51:43;;;;;;;15.80;4.23;;;;;;;-143.84;57.59;44978.63;4950297;29;20450;-75
2022/06/18 06:54:11;;;;;;;4.10;3.80;;;;;;;-143.84;57.82;44984.31;4950304;29;20478;-74
2022/06/18 06:59:24;;;;;;;3.83;3.40;;;;;;;-143.84;57.63;44978.63;4950466;29;21266;-75
2022/06/18 07:01:52;;;;;;;8.00;3.43;;;;;;;-143.84;56.94;44997.66;4950589;28;21069;-75
2022/06/18 07:04:19;;;;;;;5.50;3.10;;;;;;;-143.84;57.13;44990.03;4950529;28;20628;-75
2022/06/18 07:06:47;;;;;;;6.13;3.37;;;;;;;-143.84;56.52;45001.47;4950508;28;20488;-75
2022/06/18 07:09:15;;;;;;;3.53;3.23;;;;;;;-143.84;55.34;44980.53;4950328;29;20442;-75
2022/06/18 07:11:43;;;;;;;4.43;3.50;;;;;;;-143.84;55.55;44963.38;4950559;28;20500;-75
2022/06/18 07:14:10;;;;;;;3.73;3.43;;;;;;;-143.84;55.68;44959.56;4950608;28;20501;-75
2022/06/18 07:16:48;;;;;;;6.20;3.83;;;;;;;-143.84;54.40;44967.19;4950430;29;20489;-75
2022/06/18 07:19:16;;;;;;;8.33;3.60;;;;;;;-143.84;54.47;44986.22;4950569;28;20485;-74
2022/06/18 07:21:43;;;;;;;9.77;4.00;;;;;;;-143.84;55.00;44986.22;4950353;28;20427;-75
2022/06/18 07:24:10;;;;;;;3.30;3.07;;;;;;;-143.84;55.64;44969.09;4950199;29;20450;-75
2022/06/18 07:26:39;;;;;;;3.63;3.43;;;;;;;-143.84;55.86;44978.63;4933066;29;20483;-75
2022/06/18 07:29:06;;;;;;;4.80;4.00;;;;;;;-143.84;56.20;44984.31;4931034;28;20455;-75
2022/06/18 07:31:35;;;;;;;3.43;3.10;;;;;;;-143.84;55.21;44963.38;4930674;29;21034;-75
2022/06/18 07:34:04;;;;;;;4.37;3.53;;;;;;;-143.84;54.32;44953.88;4930950;28;20462;-75
2022/06/18 07:36:32;;;;;;;3.80;3.40;;;;;;;-143.84;55.37;44974.81;4930940;29;20446;-74
2022/06/18 07:39:00;;;;;;;5.87;3.70;;;;;;;-143.84;54.37;44972.91;4930662;29;20447;-75
2022/06/18 07:41:33;;;;;;;4.63;3.77;;;;;;;-143.84;54.52;44965.28;4930593;29;20448;-75
2022/06/18 07:44:03;;;;;;;3.50;3.30;;;;;;;-143.84;55.26;44980.53;4930948;29;20458;-75
2022/06/18 07:46:30;;;;;;;4.93;3.60;;;;;;;-143.84;55.62;44971.00;4930616;28;21064;-75
2022/06/18 07:48:57;;;;;;;8.30;4.20;;;;;;;-143.84;55.18;44978.63;4930879;29;20446;-75
2022/06/18 07:51:26;;;;;;;4.77;4.20;;;;;;;-143.84;54.72;44950.06;4930793;29;20538;-75
2022/06/18 07:53:53;;;;;;;4.93;3.97;;;;;;;-143.84;54.93;44980.53;4930287;29;20495;-75
2022/06/18 07:56:21;;;;;;;4.00;3.70;;;;;;;-143.84;56.19;44957.66;4930792;28;20506;-75
2022/06/18 07:58:48;;;;;;;6.03;4.30;;;;;;;-143.84;55.71;44976.72;4930664;29;20855;-75
2022/06/18 08:01:17;;;;;;;4.53;4.10;;;;;;;-143.84;57.28;44972.91;4930263;28;20451;-75
2022/06/18 08:03:44;;;;;;;6.23;3.50;;;;;;;-143.84;56.59;44969.09;4930433;29;20971;-75
2022/06/18 08:06:11;;;;;;;4.50;3.70;;;;;;;-143.84;57.10;44993.84;4930272;28;20903;-75
2022/06/18 08:08:39;;;;;;;6.33;4.10;;;;;;;-143.84;57.97;44990.03;4929802;29;20481;-75
2022/06/18 08:11:09;;;;;;;6.50;4.10;;;;;;;-143.84;57.82;44980.53;4929441;29;20513;-75
2022/06/18 08:13:36;;;;;;;8.30;3.87;;;;;;;-143.84;57.95;44991.94;4930308;29;20891;-75
2022/06/18 08:16:04;;;;;;;10.47;3.87;;;;;;;-143.84;58.25;45026.22;4929075;29;20439;-75
2022/06/18 08:18:32;;;;;;;6.83;4.30;;;;;;;-143.84;59.49;44982.41;4929364;28;20431;-75
2022/06/18 08:21:06;;;;;;;6.40;4.10;;;;;;;-143.84;59.53;44986.22;4929714;29;20460;-75
2022/06/18 08:23:36;;;;;;;4.83;4.33;;;;;;;-143.84;59.99;44999.56;4930010;29;20998;-75
2022/06/18 08:26:05;;;;;;;5.10;4.17;;;;;;;-143.84;59.96;44965.28;4929503;28;20490;-75
2022/06/18 08:28:34;;;;;;;5.77;3.80;;;;;;;-143.84;59.67;44999.56;4929920;29;20945;-75
2022/06/18 08:31:03;;;;;;;4.47;4.20;;;;;;;-143.84;58.79;44995.75;4929972;29;20447;-75
2022/06/18 08:33:30;;;;;;;6.60;3.67;;;;;;;-143.84;59.67;44995.75;4930221;29;20505;-75
2022/06/18 08:36:01;;;;;;;14.93;4.50;;;;;;;-143.84;59.24;44953.88;4929480;28;20962;-75
2022/06/18 08:38:29;;;;;;;5.33;3.50;;;;;;;-143.84;59.38;44990.03;4930119;29;20436;-75
2022/06/18 08:41:09;;;;;;;10.10;3.83;;;;;;;-143.84;59.36;44986.22;4929700;29;20443;-75
2022/06/18 08:44:06;;;;;;;15.13;3.90;;;;;;;-143.84;58.36;44967.19;4929682;29;20451;-75
2022/06/18 08:46:45;;;;;;;8.83;3.97;;;;;;;-143.84;57.89;44990.03;4943041;28;20494;-75
2022/06/18 08:49:43;;;;;;;4.20;3.80;;;;;;;-143.84;57.20;44953.88;4929947;29;20837;-75
2022/06/18 08:52:28;;;;;;;4.70;4.17;;;;;;;-143.84;57.80;44972.91;4931225;28;20489;-75
2022/06/18 08:55:08;;;;;;;9.57;3.63;;;;;;;-143.84;57.81;44955.75;4929206;29;20542;-75
2022/06/18 08:57:40;;;;;;;3.80;3.47;;;;;;;-143.84;57.66;44971.00;4929810;29;20474;-75
2022/06/18 09:00:13;;;;;;;5.33;3.90;;;;;;;-143.84;56.34;44976.72;4929295;29;20440;-75
2022/06/18 09:02:45;;;;;;;9.13;4.50;;;;;;;-143.84;57.69;44974.81;4930203;28;20505;-75
2022/06/18 09:05:23;;;;;;;5.33;3.50;;;;;;;-143.84;56.70;44971.00;4929405;28;20451;-75
2022/06/18 09:08:05;;;;;;;7.03;3.63;;;;;;;-143.84;55.91;44974.81;4929671;29;20967;-75
2022/06/18 09:10:45;;;;;;;5.97;3.50;;;;;;;-143.84;55.86;44978.63;4929651;29;20513;-75
2022/06/18 09:13:19;;;;;;;10.23;4.27;;;;;;;-143.84;55.66;44990.03;4929896;29;20450;-79
2022/06/18 09:15:50;;;;;;;5.53;2.93;;;;;;;-143.84;56.50;44999.56;4929739;29;20430;-75
2022/06/18 09:18:23;;;;;;;5.77;3.30;;;;;;;-143.84;57.04;44969.09;4929840;29;20945;-75
2022/06/18 09:20:54;;;;;;;18.57;4.07;;;;;;;-143.84;56.47;44976.72;4928768;28;20447;-74
2022/06/18 09:23:27;;;;;;;7.17;3.57;;;;;;;-143.84;56.25;44967.19;4928723;29;20459;-74
2022/06/18 09:25:59;;;;;;;5.53;3.77;;;;;;;-143.84;56.03;44988.13;4938615;29;20500;-74
2022/06/18 09:28:31;;;;;;;21.17;4.53;;;;;;;-143.84;55.51;44967.19;4947860;28;20466;-75
2022/06/18 09:31:03;;;;;;;10.43;4.17;;;;;;;-143.84;56.28;44982.41;4948181;28;20496;-74
2022/06/18 09:33:44;;;;;;;4.60;3.83;;;;;;;-143.84;57.44;44976.72;4947416;29;20477;-74
2022/06/18 09:36:16;;;;;;;6.40;3.30;;;;;;;-143.84;58.85;44967.19;4947870;28;20454;-74
2022/06/18 09:38:50;;;;;;;20.00;4.80;;;;;;;-143.84;57.88;44967.19;4947643;29;21165;-74
2022/06/18 09:41:23;;;;;;;15.13;4.00;;;;;;;-143.84;58.16;44965.28;4947426;29;20454;-74
2022/06/18 09:43:58;;;;;;;18.97;4.40;;;;;;;-143.84;58.79;44972.91;4947297;28;20449;-74
2022/06/18 09:46:28;;;;;;;19.20;4.60;;;;;;;-143.84;59.98;44980.53;4947638;28;20590;-74
2022/06/18 09:48:55;;;;;;;9.97;3.40;;;;;;;-143.84;60.83;44961.47;4947396;28;20469;-74
2022/06/18 09:51:30;;;;;;;11.90;3.73;;;;;;;-143.84;60.23;44976.72;4947577;29;20445;-74
2022/06/18 09:54:04;;;;;;;8.23;3.80;;;;;;;-143.84;60.38;44984.31;4946380;28;20486;-74
2022/06/18 09:56:36;;;;;;;7.80;3.90;;;;;;;-143.84;60.46;44953.88;4946408;29;20462;-74
2022/06/18 09:59:09;;;;;;;11.03;4.17;;;;;;;-143.84;61.21;44991.94;4946317;29;20948;-74
2022/06/18 10:01:40;;;;;;;8.23;4.00;;;;;;;-143.84;62.14;44957.66;4946233;28;20462;-74
2022/06/18 10:06:57;;;;;;;6.10;4.80;;;;;;;-143.84;63.91;44972.91;4949777;29;20991;-74
2022/06/18 10:09:33;;;;;;;10.47;4.90;;;;;;;-143.84;64.38;44997.66;4948259;28;20446;-74
2022/06/18 10:12:06;;;;;;;7.90;4.50;;;;;;;-143.84;64.99;44988.13;4948766;29;20596;-74
2022/06/18 10:14:33;;;;;;;6.93;4.73;;;;;;;-143.84;64.88;44961.47;4949436;29;20465;-74
2022/06/18 10:17:12;;;;;;;7.43;4.43;;;;;;;-143.84;65.83;45018.59;4949516;29;20481;-74
2022/06/18 10:19:53;;;;;;;7.93;4.33;;;;;;;-143.84;65.90;44999.56;4949573;29;20887;-74
2022/06/18 10:22:27;;;;;;;6.70;4.20;;;;;;;-143.84;67.33;44976.72;4948783;28;20454;-74
2022/06/18 10:25:07;;;;;;;13.80;4.47;;;;;;;-143.84;65.57;44971.00;4949343;29;20541;-74
2022/06/18 10:27:41;;;;;;;6.10;4.80;;;;;;;-143.84;65.79;44988.13;4949095;28;20602;-74
2022/06/18 10:30:13;;;;;;;5.40;4.53;;;;;;;-143.84;64.71;44984.31;4949318;29;20451;-74
2022/06/18 10:32:51;;;;;;;8.33;4.60;;;;;;;-143.84;65.23;44990.03;4946725;28;20508;-74
2022/06/18 10:35:31;;;;;;;4.23;3.60;;;;;;;-143.84;65.77;44999.56;4947337;29;20537;-75
2022/06/18 10:38:15;;;;;;;10.80;4.13;;;;;;;-143.84;66.18;44986.22;4949625;29;20465;-74
2022/06/18 10:40:54;;;;;;;4.10;3.80;;;;;;;-143.84;65.86;44982.41;4946512;28;20457;-74
2022/06/18 10:43:35;;;;;;;6.90;4.70;;;;;;;-143.84;66.71;44995.75;4947951;28;20489;-74
2022/06/18 10:46:07;;;;;;;11.57;4.70;;;;;;;-143.84;66.56;45005.28;4949185;29;20948;-74
2022/06/18 10:48:36;;;;;;;6.47;4.20;;;;;;;-143.84;66.90;44969.09;4949305;29;21740;-74
2022/06/18 10:51:03;;;;;;;9.43;4.40;;;;;;;-143.84;66.93;45014.78;4949128;29;20462;-74
2022/06/18 10:53:35;;;;;;;5.80;4.50;;;;;;;-143.84;67.52;44984.31;4949189;28;21146;-75
2022/06/18 10:56:13;;;;;;;6.80;4.10;;;;;;;-143.84;68.26;44999.56;4945464;28;20458;-74
2022/06/18 10:58:48;;;;;;;15.50;5.23;;;;;;;-143.84;68.92;45007.19;4945507;28;20987;-73
2022/06/18 11:01:16;;;;;;;8.63;4.60;;;;;;;-143.84;69.40;44995.75;4946147;28;20835;-74
2022/06/18 11:03:54;;;;;;;4.73;4.33;;;;;;;-143.84;69.22;44988.13;4945486;28;20446;-74
2022/06/18 11:06:22;;;;;;;10.00;4.80;;;;;;;-143.84;69.29;44993.84;4948818;29;20883;-74
2022/06/18 11:08:52;;;;;;;9.47;4.63;;;;;;;-143.84;69.77;45106.19;4948107;29;20454;-74
2022/06/18 11:11:25;;;;;;;4.30;4.00;;;;;;;-143.84;69.25;44986.22;4948138;28;20458;-73
2022/06/18 11:13:53;;;;;;;8.90;4.10;;;;;;;-143.84;70.27;44978.63;4948432;29;20459;-74
2022/06/18 11:16:22;;;;;;;10.60;4.50;;;;;;;-143.84;70.18;44991.94;4947718;28;20842;-74
2022/06/18 11:18:52;;;;;;;18.13;5.50;;;;;;;-143.84;70.14;45003.38;4946089;29;20457;-78
2022/06/18 11:21:25;;;;;;;8.47;4.60;;;;;;;-143.84;69.70;44999.56;4950278;29;20466;-78
2022/06/18 11:23:56;;;;;;;4.50;3.67;;;;;;;-143.84;69.12;44997.66;4949555;28;20482;-77
2022/06/18 11:26:27;;;;;;;4.40;4.00;;;;;;;-143.84;69.53;44974.81;4949352;28;20458;-78
2022/06/18 11:28:57;;;;;;;6.47;4.20;;;;;;;-143.84;69.55;44976.72;4947204;29;20461;-78
2022/06/18 11:31:28;;;;;;;9.40;4.63;;;;;;;-143.84;69.55;44988.13;4947412;28;20454;-78
2022/06/18 11:33:59;;;;;;;4.83;4.30;;;;;;;-143.84;69.93;44997.66;4948301;29;20936;-78
2022/06/18 11:36:37;;;;;;;7.23;4.40;;;;;;;-143.84;69.96;44976.72;4948257;29;20832;-78
2022/06/18 11:39:05;;;;;;;9.90;4.50;;;;;;;-143.84;70.32;44976.72;4949631;29;20825;-78
2022/06/18 11:41:40;;;;;;;8.20;4.13;;;;;;;-143.84;71.09;44988.13;4950114;29;20492;-74
2022/06/18 11:44:16;;;;;;;5.67;4.57;;;;;;;-143.84;72.00;44999.56;4948199;28;20465;-74
2022/06/18 11:46:47;;;;;;;12.50;3.80;;;;;;;-143.84;72.33;45007.19;4948335;29;20461;-74